createdAt,value
2023-05-15T00:00:24.055Z,3.70
2023-05-15T00:02:50.733Z,3.03
2023-05-15T00:05:17.603Z,3.00
2023-05-15T00:07:44.089Z,3.00
2023-05-15T00:10:10.673Z,3.40
2023-05-15T00:12:37.116Z,2.97
2023-05-15T00:15:03.797Z,2.95
2023-05-15T00:17:30.362Z,2.90
2023-05-15T00:19:59.061Z,3.10
2023-05-15T00:22:26.191Z,2.80
2023-05-15T00:24:53.249Z,3.20
2023-05-15T00:27:19.900Z,3.08
2023-05-15T00:29:46.352Z,3.13
2023-05-15T00:32:12.835Z,3.10
2023-05-15T00:34:39.346Z,3.42
2023-05-15T00:37:05.821Z,3.30
2023-05-15T00:39:32.286Z,3.15
2023-05-15T00:42:02.062Z,3.10
2023-05-15T00:44:31.024Z,3.20
2023-05-15T00:46:59.235Z,3.15
2023-05-15T00:49:29.417Z,3.20
2023-05-15T00:52:02.072Z,3.35
2023-05-15T00:54:28.575Z,3.45
2023-05-15T00:56:58.095Z,2.90
2023-05-15T00:59:27.839Z,3.53
2023-05-15T01:01:54.461Z,3.90
2023-05-15T01:04:21.892Z,3.47
2023-05-15T01:06:49.025Z,3.80
2023-05-15T01:09:16.038Z,4.22
2023-05-15T01:14:09.632Z,3.50
2023-05-15T01:16:36.305Z,3.47
2023-05-15T01:19:04.122Z,3.85
2023-05-15T01:21:36.470Z,4.13
2023-05-15T01:24:12.720Z,3.70
2023-05-15T01:26:56.254Z,3.88
2023-05-15T01:29:29.396Z,3.50
2023-05-15T01:32:02.092Z,3.63
2023-05-15T01:34:58.582Z,3.55
2023-05-15T01:37:28.968Z,3.78
2023-05-15T01:40:04.815Z,3.70
2023-05-15T01:42:34.585Z,4.20
2023-05-15T01:45:05.849Z,4.00
2023-05-15T01:47:39.381Z,4.57
2023-05-15T01:50:09.934Z,4.72
2023-05-15T01:52:40.531Z,4.85
2023-05-15T01:55:08.783Z,4.00
2023-05-15T01:57:36.666Z,5.03
2023-05-15T02:00:03.921Z,4.95
2023-05-15T02:02:30.894Z,4.90
2023-05-15T02:07:26.100Z,4.20
2023-05-15T02:09:53.929Z,4.03
2023-05-15T02:12:21.420Z,4.57
2023-05-15T02:14:49.540Z,4.50
2023-05-15T02:17:16.617Z,4.28
2023-05-15T02:22:09.946Z,3.90
2023-05-15T02:30:35.078Z,4.53
2023-05-15T02:33:26.106Z,4.28
2023-05-15T02:36:19.904Z,4.00
2023-05-15T02:38:53.131Z,3.90
2023-05-15T02:41:20.105Z,4.18
2023-05-15T02:46:16.344Z,4.28
2023-05-15T02:48:44.056Z,3.60
2023-05-15T02:51:10.703Z,4.25
2023-05-15T02:53:41.637Z,4.10
2023-05-15T02:56:09.071Z,3.97
2023-05-15T02:58:36.893Z,4.20
2023-05-15T03:01:04.706Z,4.82
2023-05-15T03:03:31.324Z,4.43
2023-05-15T03:05:57.865Z,4.78
2023-05-15T03:08:24.506Z,4.45
2023-05-15T03:10:51.029Z,5.97
2023-05-15T03:13:17.839Z,4.70
2023-05-15T03:15:45.536Z,4.97
2023-05-15T03:18:12.171Z,5.15
2023-05-15T03:20:38.824Z,5.05
2023-05-15T03:23:05.521Z,5.15
2023-05-15T03:25:31.945Z,4.88
2023-05-15T03:30:26.099Z,4.72
2023-05-15T03:32:52.647Z,4.80
2023-05-15T03:35:19.217Z,4.32
2023-05-15T03:37:45.689Z,4.53
2023-05-15T03:40:12.777Z,5.10
2023-05-15T03:42:39.232Z,5.25
2023-05-15T03:45:06.474Z,5.40
2023-05-15T03:47:32.979Z,5.82
2023-05-15T03:49:59.444Z,5.20
2023-05-15T03:52:25.955Z,5.80
2023-05-15T03:54:52.511Z,4.65
2023-05-15T03:57:19.018Z,5.35
2023-05-15T03:59:45.556Z,5.35
2023-05-15T04:02:12.113Z,5.40
2023-05-15T04:04:38.792Z,5.15
2023-05-15T04:07:06.175Z,5.10
2023-05-15T04:09:32.647Z,5.13
2023-05-15T04:11:59.151Z,5.00
2023-05-15T04:14:25.654Z,5.75
2023-05-15T04:16:52.173Z,5.60
2023-05-15T04:19:18.891Z,5.53
2023-05-15T04:21:45.634Z,5.10
2023-05-15T04:24:12.246Z,5.65
2023-05-15T04:26:38.772Z,5.50
2023-05-15T04:29:06.093Z,6.53
2023-05-15T04:31:32.920Z,6.38
2023-05-15T04:33:59.557Z,6.68
2023-05-15T04:36:26.063Z,6.07
2023-05-15T04:38:52.727Z,6.13
2023-05-15T04:41:19.192Z,6.70
2023-05-15T04:43:46.110Z,7.00
2023-05-15T04:48:39.161Z,6.80
2023-05-15T04:51:05.605Z,6.95
2023-05-15T04:53:32.047Z,7.93
2023-05-15T04:55:58.522Z,8.43
2023-05-15T04:58:25.001Z,11.05
2023-05-15T05:00:51.441Z,9.45
2023-05-15T05:03:18.066Z,10.10
2023-05-15T05:05:44.632Z,9.60
2023-05-15T05:08:11.123Z,9.57
2023-05-15T05:10:37.588Z,9.30
2023-05-15T05:13:04.304Z,14.20
2023-05-15T05:15:31.460Z,10.93
2023-05-15T05:17:58.148Z,10.10
2023-05-15T05:20:24.656Z,10.48
2023-05-15T05:22:51.203Z,10.63
2023-05-15T05:25:17.908Z,10.25
2023-05-15T05:27:45.154Z,11.20
2023-05-15T05:30:12.066Z,10.63
2023-05-15T05:32:38.605Z,9.00
2023-05-15T05:35:05.860Z,10.13
2023-05-15T05:37:32.381Z,9.77
2023-05-15T05:39:58.927Z,9.55
2023-05-15T05:42:25.402Z,9.35
2023-05-15T05:44:51.877Z,9.90
2023-05-15T05:47:18.322Z,9.40
2023-05-15T05:49:48.084Z,9.40
2023-05-15T05:52:15.918Z,8.98
2023-05-15T05:54:42.773Z,10.18
2023-05-15T05:57:09.940Z,8.65
2023-05-15T05:59:37.338Z,7.70
2023-05-15T06:02:04.745Z,8.95
2023-05-15T06:04:34.171Z,7.68
2023-05-15T06:07:01.376Z,9.65
2023-05-15T06:14:21.342Z,7.97
2023-05-15T06:19:14.417Z,8.07
2023-05-15T06:21:41.216Z,8.20
2023-05-15T06:24:07.802Z,8.40
2023-05-15T06:26:34.349Z,8.65
2023-05-15T06:29:00.875Z,15.70
2023-05-15T06:31:27.461Z,8.90
2023-05-15T06:33:53.952Z,8.38
2023-05-15T06:36:20.641Z,8.30
2023-05-15T06:38:47.093Z,8.05
2023-05-15T06:41:13.551Z,7.70
2023-05-15T06:43:40.165Z,7.00
2023-05-15T06:46:06.742Z,7.75
2023-05-15T06:48:33.277Z,7.38
2023-05-15T06:50:59.826Z,7.70
2023-05-15T06:53:26.320Z,7.43
2023-05-15T06:55:52.908Z,7.13
2023-05-15T06:58:19.399Z,7.45
2023-05-15T07:00:45.938Z,6.78
2023-05-15T07:03:14.444Z,6.68
2023-05-15T07:05:40.897Z,7.47
2023-05-15T07:08:07.380Z,6.07
2023-05-15T07:10:33.912Z,6.60
2023-05-15T07:13:00.413Z,5.57
2023-05-15T07:15:26.966Z,5.55
2023-05-15T07:17:53.570Z,6.00
2023-05-15T07:20:20.234Z,6.22
2023-05-15T07:22:55.837Z,5.93
2023-05-15T07:27:50.878Z,6.60
2023-05-15T07:30:17.481Z,6.47
2023-05-15T07:32:44.311Z,5.82
2023-05-15T07:37:38.924Z,6.40
2023-05-15T07:40:06.292Z,7.75
2023-05-15T07:42:32.848Z,6.43
2023-05-15T07:44:59.366Z,5.88
2023-05-15T07:47:25.894Z,6.82
2023-05-15T07:49:52.359Z,7.05
2023-05-15T07:52:19.389Z,6.30
2023-05-15T07:54:45.876Z,6.32
2023-05-15T07:57:13.129Z,6.80
2023-05-15T07:59:39.761Z,5.88
2023-05-15T08:02:07.171Z,6.38
2023-05-15T08:04:33.823Z,5.97
2023-05-15T08:07:00.803Z,6.45
2023-05-15T08:09:27.287Z,6.03
2023-05-15T08:11:56.481Z,6.68
2023-05-15T08:14:22.978Z,6.63
2023-05-15T08:16:51.496Z,6.22
2023-05-15T08:19:18.034Z,6.03
2023-05-15T08:21:44.648Z,6.47
2023-05-15T08:24:11.063Z,6.47
2023-05-15T08:26:37.767Z,6.50
2023-05-15T08:29:04.284Z,6.82
2023-05-15T08:31:30.815Z,6.60
2023-05-15T08:33:57.294Z,6.70
2023-05-15T08:36:23.985Z,6.55
2023-05-15T08:38:50.526Z,6.70
2023-05-15T08:41:39.957Z,7.07
2023-05-15T08:44:09.390Z,7.25
2023-05-15T08:46:36.428Z,7.43
2023-05-15T08:49:17.876Z,6.47
2023-05-15T08:51:44.506Z,6.80
2023-05-15T08:54:11.690Z,7.28
2023-05-15T08:56:38.454Z,8.07
2023-05-15T08:59:05.307Z,6.70
2023-05-15T09:01:32.643Z,7.90
2023-05-15T09:03:59.244Z,7.15
2023-05-15T09:06:26.215Z,7.30
2023-05-15T09:11:24.482Z,7.57
2023-05-15T09:13:51.050Z,7.43
2023-05-15T09:16:17.688Z,8.07
2023-05-15T09:18:45.417Z,7.97
2023-05-15T09:21:26.253Z,7.95
2023-05-15T09:24:15.859Z,7.25
2023-05-15T09:26:43.100Z,7.95
2023-05-15T09:29:09.713Z,7.70
2023-05-15T09:31:36.256Z,8.05
2023-05-15T09:34:04.811Z,9.00
2023-05-15T09:36:32.534Z,7.63
2023-05-15T09:39:00.563Z,7.72
2023-05-15T09:41:28.193Z,8.57
2023-05-15T09:43:56.971Z,7.95
2023-05-15T09:46:24.392Z,7.53
2023-05-15T09:48:55.496Z,7.72
2023-05-15T09:51:22.377Z,8.27
2023-05-15T09:56:17.548Z,7.22
2023-05-15T09:58:54.920Z,7.45
2023-05-15T10:01:23.300Z,7.38
2023-05-15T10:04:04.927Z,7.43
2023-05-15T10:06:43.171Z,8.02
2023-05-15T10:09:11.350Z,7.15
2023-05-15T10:11:39.924Z,8.60
2023-05-15T10:14:09.252Z,9.07
2023-05-15T10:16:37.200Z,7.07
2023-05-15T10:19:08.062Z,6.72
2023-05-15T10:21:36.854Z,6.30
2023-05-15T10:24:04.788Z,6.55
2023-05-15T10:26:40.049Z,7.25
2023-05-15T10:29:09.700Z,6.75
2023-05-15T10:31:36.892Z,6.10
2023-05-15T10:34:05.040Z,7.20
2023-05-15T10:36:33.106Z,6.82
2023-05-15T10:39:05.766Z,7.55
2023-05-15T10:41:35.748Z,6.45
2023-05-15T10:44:02.813Z,6.60
2023-05-15T10:46:30.882Z,6.75
2023-05-15T10:48:58.610Z,6.43
2023-05-15T10:51:30.827Z,5.90
2023-05-15T10:53:57.685Z,5.80
2023-05-15T10:56:31.216Z,5.60
2023-05-15T10:58:57.931Z,7.30
2023-05-15T11:01:29.057Z,5.90
2023-05-15T11:04:09.061Z,5.53
2023-05-15T11:06:37.559Z,5.35
2023-05-15T11:09:28.807Z,6.20
2023-05-15T11:11:57.899Z,5.97
2023-05-15T11:14:25.547Z,5.43
2023-05-15T11:16:55.304Z,5.53
2023-05-15T11:19:39.809Z,6.32
2023-05-15T11:22:09.291Z,5.85
2023-05-15T11:24:54.688Z,5.25
2023-05-15T11:27:41.737Z,5.63
2023-05-15T11:30:08.683Z,5.63
2023-05-15T11:32:48.213Z,5.85
2023-05-15T11:35:28.151Z,5.07
2023-05-15T11:38:00.170Z,5.03
2023-05-15T11:40:29.097Z,5.97
2023-05-15T11:43:23.361Z,5.32
2023-05-15T11:45:58.523Z,5.30
2023-05-15T11:48:32.131Z,6.10
2023-05-15T11:51:00.716Z,4.72
2023-05-15T11:53:29.309Z,4.82
2023-05-15T11:55:55.731Z,4.60
2023-05-15T11:58:23.955Z,4.40
2023-05-15T12:00:52.048Z,5.22
2023-05-15T12:03:27.942Z,4.78
2023-05-15T12:05:58.943Z,5.68
2023-05-15T12:08:38.002Z,6.80
2023-05-15T12:11:05.073Z,7.20
2023-05-15T12:13:32.943Z,6.82
2023-05-15T12:15:59.816Z,6.72
2023-05-15T12:18:26.373Z,7.28
2023-05-15T12:20:54.320Z,7.30
2023-05-15T12:23:22.701Z,6.30
2023-05-15T12:25:53.404Z,5.88
2023-05-15T12:28:20.011Z,5.72
2023-05-15T12:30:47.017Z,6.15
2023-05-15T12:33:13.961Z,6.57
2023-05-15T12:35:49.522Z,6.68
2023-05-15T12:38:16.689Z,7.18
2023-05-15T12:40:44.049Z,7.90
2023-05-15T12:43:10.923Z,6.63
2023-05-15T12:45:42.060Z,6.40
2023-05-15T12:48:14.380Z,7.00
2023-05-15T12:50:40.895Z,6.07
2023-05-15T12:53:07.402Z,7.22
2023-05-15T12:55:36.390Z,6.43
2023-05-15T12:58:07.985Z,6.35
2023-05-15T13:00:36.269Z,6.18
2023-05-15T13:03:04.142Z,6.50
2023-05-15T13:05:34.640Z,6.30
2023-05-15T13:08:03.082Z,5.85
2023-05-15T13:10:33.475Z,5.43
2023-05-15T13:13:00.271Z,5.65
2023-05-15T13:18:09.747Z,5.20
2023-05-15T13:20:38.855Z,4.47
2023-05-15T13:23:06.139Z,3.88
2023-05-15T13:25:33.512Z,3.30
2023-05-15T13:28:02.069Z,3.33
2023-05-15T13:30:29.097Z,2.92
2023-05-15T13:32:56.159Z,3.97
2023-05-15T13:35:23.139Z,4.32
2023-05-15T13:37:49.939Z,4.30
2023-05-15T13:45:11.484Z,4.30
2023-05-15T13:47:41.218Z,4.07
2023-05-15T13:50:13.266Z,4.47
2023-05-15T13:52:41.165Z,4.63
2023-05-15T13:55:09.799Z,4.90
2023-05-15T13:57:37.891Z,5.07
2023-05-15T14:00:07.876Z,4.45
2023-05-15T14:02:34.562Z,4.95
2023-05-15T14:07:27.750Z,4.88
2023-05-15T14:09:54.229Z,5.47
2023-05-15T14:12:22.067Z,5.03
2023-05-15T14:14:48.827Z,4.50
2023-05-15T14:22:08.479Z,5.05
2023-05-15T14:24:35.394Z,5.30
2023-05-15T14:27:01.882Z,6.13
2023-05-15T14:29:28.369Z,5.45
2023-05-15T14:31:54.858Z,5.93
2023-05-15T14:34:22.556Z,6.80
2023-05-15T14:36:52.045Z,5.55
2023-05-15T14:39:19.082Z,5.72
2023-05-15T14:41:45.991Z,4.88
2023-05-15T14:44:12.436Z,4.68
2023-05-15T14:46:42.804Z,4.18
2023-05-15T14:49:09.584Z,3.75
2023-05-15T14:56:29.330Z,3.80
2023-05-15T14:58:55.804Z,3.65
2023-05-15T15:01:22.294Z,3.25
2023-05-15T15:03:48.802Z,3.35
2023-05-15T15:06:15.389Z,3.65
2023-05-15T15:08:41.944Z,3.55
2023-05-15T15:11:08.843Z,5.03
2023-05-15T15:13:35.469Z,3.33
2023-05-15T15:16:02.036Z,3.75
2023-05-15T15:18:28.619Z,3.58
2023-05-15T15:20:55.128Z,4.18
2023-05-15T15:23:21.617Z,3.72
2023-05-15T15:25:48.078Z,3.40
2023-05-15T15:28:14.724Z,3.50
2023-05-15T15:30:41.198Z,3.78
2023-05-15T15:33:26.273Z,3.60
2023-05-15T15:36:09.406Z,3.75
2023-05-15T15:38:36.601Z,3.83
2023-05-15T15:41:03.610Z,3.80
2023-05-15T15:43:30.064Z,3.70
2023-05-15T15:45:56.632Z,3.80
2023-05-15T15:48:23.203Z,4.25
2023-05-15T15:50:51.734Z,4.00
2023-05-15T15:53:18.236Z,3.50
2023-05-15T15:55:46.382Z,4.22
2023-05-15T15:58:13.743Z,4.07
2023-05-15T16:00:41.238Z,4.00
2023-05-15T16:03:08.003Z,3.80
2023-05-15T16:05:34.591Z,4.28
2023-05-15T16:08:01.105Z,4.15
2023-05-15T16:10:27.668Z,4.20
2023-05-15T16:12:54.268Z,3.78
2023-05-15T16:15:23.661Z,4.90
2023-05-15T16:17:52.983Z,4.38
2023-05-15T16:20:20.356Z,4.97
2023-05-15T16:30:06.645Z,4.55
2023-05-15T16:32:34.043Z,4.00
2023-05-15T16:35:00.953Z,4.35
2023-05-15T16:44:47.034Z,3.22
2023-05-15T16:47:13.488Z,3.75
2023-05-15T16:49:40.936Z,3.88
2023-05-15T16:52:09.059Z,3.38
2023-05-15T16:54:35.566Z,3.53
2023-05-15T16:57:02.008Z,3.58
2023-05-15T16:59:28.502Z,3.90
2023-05-15T17:01:55.051Z,3.58
2023-05-15T17:04:21.546Z,3.60
2023-05-15T17:06:48.315Z,3.78
2023-05-15T17:11:41.198Z,3.85
2023-05-15T17:14:07.794Z,3.55
2023-05-15T17:16:34.338Z,3.80
2023-05-15T17:19:00.887Z,4.20
2023-05-15T17:21:27.434Z,3.65
2023-05-15T17:23:54.292Z,3.90
2023-05-15T17:28:48.162Z,3.95
2023-05-15T17:31:14.650Z,3.83
2023-05-15T17:33:41.236Z,3.55
2023-05-15T17:36:07.754Z,3.55
2023-05-15T17:38:34.283Z,3.72
2023-05-15T17:41:00.780Z,3.83
2023-05-15T17:43:27.237Z,3.75
2023-05-15T17:45:53.949Z,4.10
2023-05-15T17:48:20.479Z,4.18
2023-05-15T17:50:48.046Z,4.32
2023-05-15T17:53:15.220Z,4.65
2023-05-15T17:55:41.739Z,4.85
2023-05-15T17:58:08.282Z,3.97
2023-05-15T18:00:34.880Z,3.78
2023-05-15T18:03:01.538Z,3.97
2023-05-15T18:07:58.023Z,4.03
2023-05-15T18:10:24.664Z,4.05
2023-05-15T18:12:51.306Z,4.10
2023-05-15T18:15:17.864Z,3.97
2023-05-15T18:17:44.466Z,4.15
2023-05-15T18:20:11.543Z,4.75
2023-05-15T18:22:38.401Z,5.05
2023-05-15T18:27:31.654Z,5.15
2023-05-15T18:29:58.193Z,6.30
2023-05-15T18:32:24.719Z,7.25
2023-05-15T18:34:51.301Z,5.32
2023-05-15T18:37:17.839Z,4.70
2023-05-15T18:39:44.400Z,4.18
2023-05-15T18:42:10.954Z,3.88
2023-05-15T18:44:37.425Z,4.25
2023-05-15T18:47:03.987Z,4.38
2023-05-15T18:49:30.622Z,3.92
2023-05-15T18:51:58.218Z,4.90
2023-05-15T18:54:25.109Z,4.40
2023-05-15T19:01:45.188Z,4.18
2023-05-15T19:04:12.107Z,4.32
2023-05-15T19:09:06.006Z,4.13
2023-05-15T19:11:32.454Z,4.03
2023-05-15T19:13:58.996Z,5.10
2023-05-15T19:16:28.493Z,4.13
2023-05-15T19:18:55.661Z,4.60
2023-05-15T19:21:22.333Z,5.63
2023-05-15T19:23:50.792Z,5.47
2023-05-15T19:26:17.321Z,5.15
2023-05-15T19:28:44.086Z,4.80
2023-05-15T19:31:20.188Z,5.53
2023-05-15T19:33:54.258Z,4.70
2023-05-15T19:36:20.739Z,4.70
2023-05-15T19:38:47.948Z,4.93
2023-05-15T19:41:14.713Z,4.28
2023-05-15T19:46:07.653Z,5.70
2023-05-15T19:48:34.285Z,5.15
2023-05-15T19:51:00.869Z,4.70
2023-05-15T19:53:27.416Z,5.38
2023-05-15T19:55:53.874Z,5.18
2023-05-15T19:58:22.327Z,5.30
2023-05-15T20:00:49.886Z,4.93
2023-05-15T20:03:16.516Z,5.80
2023-05-15T20:05:43.148Z,5.60
2023-05-15T20:08:09.573Z,6.05
2023-05-15T20:10:36.088Z,7.43
2023-05-15T20:13:03.441Z,6.55
2023-05-15T20:15:31.651Z,6.25
2023-05-15T20:17:58.297Z,6.88
2023-05-15T20:20:25.546Z,5.72
2023-05-15T20:22:52.359Z,5.60
2023-05-15T20:25:18.845Z,5.50
2023-05-15T20:27:45.320Z,5.82
2023-05-15T20:30:11.954Z,5.85
2023-05-15T20:32:38.650Z,5.47
2023-05-15T20:35:05.960Z,5.78
2023-05-15T20:37:33.320Z,5.75
2023-05-15T20:40:00.346Z,6.32
2023-05-15T20:42:27.984Z,5.78
2023-05-15T20:44:54.550Z,5.55
2023-05-15T20:47:21.099Z,5.50
2023-05-15T20:49:47.568Z,6.38
2023-05-15T20:52:14.046Z,7.22
2023-05-15T20:54:40.518Z,6.10
2023-05-15T20:57:07.092Z,5.53
2023-05-15T20:59:34.003Z,6.85
2023-05-15T21:04:26.971Z,6.68
2023-05-15T21:06:54.218Z,5.85
2023-05-15T21:09:20.743Z,5.43
2023-05-15T21:11:47.359Z,6.32
2023-05-15T21:14:14.331Z,5.65
2023-05-15T21:19:07.715Z,5.70
2023-05-15T21:21:35.390Z,5.72
2023-05-15T21:24:03.616Z,6.03
2023-05-15T21:26:30.517Z,6.18
2023-05-15T21:28:59.046Z,6.28
2023-05-15T21:31:26.901Z,5.65
2023-05-15T21:33:54.244Z,5.80
2023-05-15T21:36:21.230Z,5.82
2023-05-15T21:41:14.130Z,5.80
2023-05-15T21:43:40.681Z,6.80
2023-05-15T21:46:07.181Z,6.50
2023-05-15T21:48:33.686Z,6.45
2023-05-15T21:51:00.131Z,6.80
2023-05-15T21:53:26.939Z,6.20
2023-05-15T21:56:03.049Z,7.22
2023-05-15T21:58:29.809Z,6.90
2023-05-15T22:00:56.267Z,7.57
2023-05-15T22:03:23.076Z,6.88
2023-05-15T22:05:51.645Z,6.55
2023-05-15T22:08:19.172Z,6.60
2023-05-15T22:10:45.715Z,7.07
2023-05-15T22:13:12.256Z,7.30
2023-05-15T22:15:38.788Z,7.18
2023-05-15T22:18:08.441Z,7.65
2023-05-15T22:20:35.024Z,7.88
2023-05-15T22:23:01.540Z,8.15
2023-05-15T22:25:28.002Z,6.88
2023-05-15T22:27:54.475Z,7.47
2023-05-15T22:30:21.111Z,7.82
2023-05-15T22:32:47.631Z,7.75
2023-05-15T22:35:14.230Z,7.53
2023-05-15T22:37:42.057Z,8.05
2023-05-15T22:40:10.594Z,8.25
2023-05-15T22:42:37.521Z,8.05
2023-05-15T22:47:31.139Z,7.68
2023-05-15T22:49:57.689Z,8.00
2023-05-15T22:52:24.177Z,8.18
2023-05-15T22:54:50.751Z,8.48
2023-05-15T22:57:17.252Z,8.43
2023-05-15T22:59:44.556Z,8.90
2023-05-15T23:04:37.466Z,8.93
2023-05-15T23:07:04.108Z,8.15
2023-05-15T23:09:30.661Z,8.75
2023-05-15T23:11:57.152Z,8.52
2023-05-15T23:14:24.168Z,9.68
2023-05-15T23:16:50.779Z,9.15
2023-05-15T23:19:17.301Z,9.52
2023-05-15T23:21:43.766Z,8.93
2023-05-15T23:24:10.257Z,8.88
2023-05-15T23:26:36.744Z,9.70
2023-05-15T23:29:03.248Z,9.52
2023-05-15T23:31:29.784Z,9.02
2023-05-15T23:33:56.289Z,9.40
2023-05-15T23:36:22.723Z,9.27
2023-05-15T23:38:49.148Z,9.02
2023-05-15T23:41:16.588Z,9.68
2023-05-15T23:43:43.044Z,9.10
2023-05-15T23:46:09.636Z,9.55
2023-05-15T23:48:36.113Z,9.10
2023-05-15T23:51:02.616Z,9.05
2023-05-15T23:53:29.264Z,9.57
2023-05-15T23:55:55.904Z,9.38
2023-05-15T23:58:22.344Z,9.68
